sensor_id;sensor_type;location;lat;lon;timestamp;P1;durP1;ratioP1;P2;durP2;ratioP2
545;SDS011;259;53.304;9.816;2023-07-20T00:01:24;0.80;;;0.73;;
545;SDS011;259;53.304;9.816;2023-07-20T00:03:50;1.10;;;0.70;;
545;SDS011;259;53.304;9.816;2023-07-20T00:06:25;1.10;;;1.00;;
545;SDS011;259;53.304;9.816;2023-07-20T00:08:52;1.37;;;0.87;;
545;SDS011;259;53.304;9.816;2023-07-20T00:11:24;1.50;;;0.97;;
545;SDS011;259;53.304;9.816;2023-07-20T00:13:52;1.03;;;0.93;;
545;SDS011;259;53.304;9.816;2023-07-20T00:16:17;2.27;;;0.70;;
545;SDS011;259;53.304;9.816;2023-07-20T00:18:43;0.70;;;0.60;;
545;SDS011;259;53.304;9.816;2023-07-20T00:21:09;2.80;;;0.70;;
545;SDS011;259;53.304;9.816;2023-07-20T00:23:35;0.90;;;0.70;;
545;SDS011;259;53.304;9.816;2023-07-20T00:26:00;1.50;;;0.77;;
545;SDS011;259;53.304;9.816;2023-07-20T00:28:27;0.80;;;0.70;;
545;SDS011;259;53.304;9.816;2023-07-20T00:30:52;1.23;;;0.73;;
545;SDS011;259;53.304;9.816;2023-07-20T00:33:18;0.80;;;0.70;;
545;SDS011;259;53.304;9.816;2023-07-20T00:35:44;1.13;;;1.03;;
545;SDS011;259;53.304;9.816;2023-07-20T00:38:10;1.47;;;0.73;;
545;SDS011;259;53.304;9.816;2023-07-20T00:40:37;1.50;;;0.90;;
545;SDS011;259;53.304;9.816;2023-07-20T00:43:03;0.90;;;0.83;;
545;SDS011;259;53.304;9.816;2023-07-20T00:45:29;1.90;;;0.67;;
545;SDS011;259;53.304;9.816;2023-07-20T00:47:56;0.80;;;0.80;;
545;SDS011;259;53.304;9.816;2023-07-20T00:50:22;1.10;;;0.77;;
545;SDS011;259;53.304;9.816;2023-07-20T00:52:49;1.20;;;0.70;;
545;SDS011;259;53.304;9.816;2023-07-20T00:55:15;1.00;;;0.80;;
545;SDS011;259;53.304;9.816;2023-07-20T00:57:41;0.70;;;0.70;;
545;SDS011;259;53.304;9.816;2023-07-20T01:00:07;1.37;;;0.80;;
545;SDS011;259;53.304;9.816;2023-07-20T01:02:33;0.97;;;0.90;;
545;SDS011;259;53.304;9.816;2023-07-20T01:04:59;0.80;;;0.60;;
545;SDS011;259;53.304;9.816;2023-07-20T01:07:27;1.47;;;0.80;;
545;SDS011;259;53.304;9.816;2023-07-20T01:10:08;0.87;;;0.87;;
545;SDS011;259;53.304;9.816;2023-07-20T01:12:42;0.80;;;0.80;;
545;SDS011;259;53.304;9.816;2023-07-20T01:15:11;1.20;;;0.90;;
545;SDS011;259;53.304;9.816;2023-07-20T01:17:37;0.60;;;0.60;;
545;SDS011;259;53.304;9.816;2023-07-20T01:20:03;1.10;;;0.70;;
545;SDS011;259;53.304;9.816;2023-07-20T01:22:41;1.80;;;0.80;;
545;SDS011;259;53.304;9.816;2023-07-20T01:31:10;0.97;;;0.90;;
545;SDS011;259;53.304;9.816;2023-07-20T01:33:50;1.00;;;0.50;;
545;SDS011;259;53.304;9.816;2023-07-20T01:36:20;0.70;;;0.70;;
545;SDS011;259;53.304;9.816;2023-07-20T01:38:49;1.97;;;0.90;;
545;SDS011;259;53.304;9.816;2023-07-20T01:41:16;0.80;;;0.80;;
545;SDS011;259;53.304;9.816;2023-07-20T01:43:43;0.70;;;0.70;;
545;SDS011;259;53.304;9.816;2023-07-20T01:46:09;0.70;;;0.60;;
545;SDS011;259;53.304;9.816;2023-07-20T01:48:35;0.83;;;0.80;;
545;SDS011;259;53.304;9.816;2023-07-20T01:51:00;0.80;;;0.80;;
545;SDS011;259;53.304;9.816;2023-07-20T01:53:26;1.07;;;0.87;;
545;SDS011;259;53.304;9.816;2023-07-20T01:55:52;0.80;;;0.57;;
545;SDS011;259;53.304;9.816;2023-07-20T01:58:19;1.30;;;0.63;;
545;SDS011;259;53.304;9.816;2023-07-20T02:00:45;0.80;;;0.73;;
545;SDS011;259;53.304;9.816;2023-07-20T02:03:11;0.80;;;0.70;;
545;SDS011;259;53.304;9.816;2023-07-20T02:05:37;0.93;;;0.70;;
545;SDS011;259;53.304;9.816;2023-07-20T02:08:03;0.63;;;0.63;;
545;SDS011;259;53.304;9.816;2023-07-20T02:10:29;1.60;;;0.70;;
545;SDS011;259;53.304;9.816;2023-07-20T02:12:55;3.20;;;0.80;;
545;SDS011;259;53.304;9.816;2023-07-20T02:15:21;0.70;;;0.70;;
545;SDS011;259;53.304;9.816;2023-07-20T02:17:47;0.67;;;0.60;;
545;SDS011;259;53.304;9.816;2023-07-20T02:20:13;0.63;;;0.63;;
545;SDS011;259;53.304;9.816;2023-07-20T02:22:39;0.60;;;0.53;;
545;SDS011;259;53.304;9.816;2023-07-20T02:25:05;1.00;;;0.90;;
545;SDS011;259;53.304;9.816;2023-07-20T02:27:35;0.70;;;0.60;;
545;SDS011;259;53.304;9.816;2023-07-20T02:30:02;2.50;;;0.70;;
545;SDS011;259;53.304;9.816;2023-07-20T02:32:29;0.70;;;0.70;;
545;SDS011;259;53.304;9.816;2023-07-20T02:34:55;0.90;;;0.60;;
545;SDS011;259;53.304;9.816;2023-07-20T02:37:21;2.00;;;0.60;;
545;SDS011;259;53.304;9.816;2023-07-20T02:39:46;0.80;;;0.60;;
545;SDS011;259;53.304;9.816;2023-07-20T02:42:12;0.93;;;0.80;;
545;SDS011;259;53.304;9.816;2023-07-20T02:44:38;1.03;;;0.70;;
545;SDS011;259;53.304;9.816;2023-07-20T02:47:04;0.60;;;0.60;;
545;SDS011;259;53.304;9.816;2023-07-20T02:49:30;0.80;;;0.80;;
545;SDS011;259;53.304;9.816;2023-07-20T02:51:55;0.70;;;0.60;;
545;SDS011;259;53.304;9.816;2023-07-20T02:54:21;0.70;;;0.70;;
545;SDS011;259;53.304;9.816;2023-07-20T02:56:47;1.63;;;0.63;;
545;SDS011;259;53.304;9.816;2023-07-20T02:59:12;1.77;;;0.70;;
545;SDS011;259;53.304;9.816;2023-07-20T03:01:38;0.70;;;0.60;;
545;SDS011;259;53.304;9.816;2023-07-20T03:04:04;0.60;;;0.53;;
545;SDS011;259;53.304;9.816;2023-07-20T03:06:29;0.90;;;0.87;;
545;SDS011;259;53.304;9.816;2023-07-20T03:08:55;1.00;;;0.70;;
545;SDS011;259;53.304;9.816;2023-07-20T03:11:21;0.60;;;0.60;;
545;SDS011;259;53.304;9.816;2023-07-20T03:13:47;1.90;;;0.80;;
545;SDS011;259;53.304;9.816;2023-07-20T03:16:14;1.23;;;0.80;;
545;SDS011;259;53.304;9.816;2023-07-20T03:18:44;0.50;;;0.50;;
545;SDS011;259;53.304;9.816;2023-07-20T03:21:10;0.70;;;0.60;;
545;SDS011;259;53.304;9.816;2023-07-20T03:23:36;0.80;;;0.80;;
545;SDS011;259;53.304;9.816;2023-07-20T03:26:03;0.80;;;0.57;;
545;SDS011;259;53.304;9.816;2023-07-20T03:28:29;1.30;;;0.63;;
545;SDS011;259;53.304;9.816;2023-07-20T03:30:57;0.70;;;0.60;;
545;SDS011;259;53.304;9.816;2023-07-20T03:33:26;0.70;;;0.70;;
545;SDS011;259;53.304;9.816;2023-07-20T03:35:54;0.93;;;0.80;;
545;SDS011;259;53.304;9.816;2023-07-20T03:38:20;0.60;;;0.57;;
545;SDS011;259;53.304;9.816;2023-07-20T03:40:54;0.50;;;0.43;;
545;SDS011;259;53.304;9.816;2023-07-20T03:43:22;0.60;;;0.60;;
545;SDS011;259;53.304;9.816;2023-07-20T03:45:49;0.50;;;0.50;;
545;SDS011;259;53.304;9.816;2023-07-20T03:48:16;0.63;;;0.60;;
545;SDS011;259;53.304;9.816;2023-07-20T03:50:47;0.70;;;0.70;;
545;SDS011;259;53.304;9.816;2023-07-20T03:53:14;0.73;;;0.53;;
545;SDS011;259;53.304;9.816;2023-07-20T03:55:41;1.30;;;0.47;;
545;SDS011;259;53.304;9.816;2023-07-20T03:58:10;0.70;;;0.50;;
545;SDS011;259;53.304;9.816;2023-07-20T04:00:36;0.60;;;0.60;;
545;SDS011;259;53.304;9.816;2023-07-20T04:03:02;1.10;;;0.80;;
545;SDS011;259;53.304;9.816;2023-07-20T04:05:28;0.90;;;0.90;;
545;SDS011;259;53.304;9.816;2023-07-20T04:07:53;1.00;;;0.87;;
545;SDS011;259;53.304;9.816;2023-07-20T04:10:19;3.37;;;0.70;;
545;SDS011;259;53.304;9.816;2023-07-20T04:12:45;0.60;;;0.60;;
545;SDS011;259;53.304;9.816;2023-07-20T04:15:12;1.00;;;0.40;;
545;SDS011;259;53.304;9.816;2023-07-20T04:17:38;0.80;;;0.80;;
545;SDS011;259;53.304;9.816;2023-07-20T04:20:05;0.60;;;0.60;;
545;SDS011;259;53.304;9.816;2023-07-20T04:22:32;0.57;;;0.50;;
545;SDS011;259;53.304;9.816;2023-07-20T04:24:58;0.80;;;0.70;;
545;SDS011;259;53.304;9.816;2023-07-20T04:27:24;1.13;;;0.63;;
545;SDS011;259;53.304;9.816;2023-07-20T04:29:49;0.70;;;0.67;;
545;SDS011;259;53.304;9.816;2023-07-20T04:32:15;0.63;;;0.63;;
545;SDS011;259;53.304;9.816;2023-07-20T04:34:41;0.70;;;0.57;;
545;SDS011;259;53.304;9.816;2023-07-20T04:37:07;0.60;;;0.50;;
545;SDS011;259;53.304;9.816;2023-07-20T04:39:33;0.77;;;0.77;;
545;SDS011;259;53.304;9.816;2023-07-20T04:41:59;0.80;;;0.60;;
545;SDS011;259;53.304;9.816;2023-07-20T04:44:25;1.10;;;0.80;;
545;SDS011;259;53.304;9.816;2023-07-20T04:46:50;1.43;;;0.63;;
545;SDS011;259;53.304;9.816;2023-07-20T04:49:16;0.60;;;0.60;;
545;SDS011;259;53.304;9.816;2023-07-20T04:51:42;1.20;;;0.60;;
545;SDS011;259;53.304;9.816;2023-07-20T04:54:07;0.80;;;0.50;;
545;SDS011;259;53.304;9.816;2023-07-20T04:56:33;0.60;;;0.50;;
545;SDS011;259;53.304;9.816;2023-07-20T04:58:59;0.83;;;0.60;;
545;SDS011;259;53.304;9.816;2023-07-20T05:01:25;0.70;;;0.60;;
545;SDS011;259;53.304;9.816;2023-07-20T05:03:51;0.70;;;0.60;;
545;SDS011;259;53.304;9.816;2023-07-20T05:06:18;0.57;;;0.50;;
545;SDS011;259;53.304;9.816;2023-07-20T05:08:43;0.60;;;0.50;;
545;SDS011;259;53.304;9.816;2023-07-20T05:11:10;0.93;;;0.50;;
545;SDS011;259;53.304;9.816;2023-07-20T05:13:36;0.83;;;0.80;;
545;SDS011;259;53.304;9.816;2023-07-20T05:16:03;0.90;;;0.77;;
545;SDS011;259;53.304;9.816;2023-07-20T05:18:28;1.77;;;0.80;;
545;SDS011;259;53.304;9.816;2023-07-20T05:20:54;0.60;;;0.60;;
545;SDS011;259;53.304;9.816;2023-07-20T05:23:20;0.60;;;0.50;;
545;SDS011;259;53.304;9.816;2023-07-20T05:25:47;0.60;;;0.50;;
545;SDS011;259;53.304;9.816;2023-07-20T05:28:22;0.80;;;0.60;;
545;SDS011;259;53.304;9.816;2023-07-20T05:30:52;0.67;;;0.67;;
545;SDS011;259;53.304;9.816;2023-07-20T05:33:18;0.63;;;0.63;;
545;SDS011;259;53.304;9.816;2023-07-20T05:35:45;0.70;;;0.70;;
545;SDS011;259;53.304;9.816;2023-07-20T05:38:11;1.00;;;0.73;;
545;SDS011;259;53.304;9.816;2023-07-20T05:40:39;0.70;;;0.70;;
545;SDS011;259;53.304;9.816;2023-07-20T05:43:06;0.67;;;0.67;;
545;SDS011;259;53.304;9.816;2023-07-20T05:45:32;0.70;;;0.60;;
545;SDS011;259;53.304;9.816;2023-07-20T05:47:57;0.60;;;0.60;;
545;SDS011;259;53.304;9.816;2023-07-20T05:50:23;0.60;;;0.60;;
545;SDS011;259;53.304;9.816;2023-07-20T05:52:49;0.97;;;0.80;;
545;SDS011;259;53.304;9.816;2023-07-20T05:55:17;0.60;;;0.60;;
545;SDS011;259;53.304;9.816;2023-07-20T05:57:43;0.80;;;0.60;;
545;SDS011;259;53.304;9.816;2023-07-20T06:00:09;0.80;;;0.80;;
545;SDS011;259;53.304;9.816;2023-07-20T06:02:37;1.20;;;1.07;;
545;SDS011;259;53.304;9.816;2023-07-20T06:05:03;0.80;;;0.80;;
545;SDS011;259;53.304;9.816;2023-07-20T06:07:29;1.20;;;1.10;;
545;SDS011;259;53.304;9.816;2023-07-20T06:09:55;1.90;;;1.40;;
545;SDS011;259;53.304;9.816;2023-07-20T06:12:21;1.30;;;1.07;;
545;SDS011;259;53.304;9.816;2023-07-20T06:14:46;0.70;;;0.70;;
545;SDS011;259;53.304;9.816;2023-07-20T06:17:12;1.10;;;0.90;;
545;SDS011;259;53.304;9.816;2023-07-20T06:19:38;1.10;;;1.00;;
545;SDS011;259;53.304;9.816;2023-07-20T06:22:03;1.20;;;0.90;;
545;SDS011;259;53.304;9.816;2023-07-20T06:24:29;1.43;;;0.80;;
545;SDS011;259;53.304;9.816;2023-07-20T06:26:55;1.00;;;0.87;;
545;SDS011;259;53.304;9.816;2023-07-20T06:29:21;1.07;;;0.80;;
545;SDS011;259;53.304;9.816;2023-07-20T06:31:46;0.90;;;0.80;;
545;SDS011;259;53.304;9.816;2023-07-20T06:34:12;1.07;;;0.97;;
545;SDS011;259;53.304;9.816;2023-07-20T06:36:38;1.57;;;1.07;;
545;SDS011;259;53.304;9.816;2023-07-20T06:39:04;1.30;;;0.80;;
545;SDS011;259;53.304;9.816;2023-07-20T06:41:29;2.70;;;1.10;;
545;SDS011;259;53.304;9.816;2023-07-20T06:43:55;2.67;;;1.30;;
545;SDS011;259;53.304;9.816;2023-07-20T06:46:24;1.17;;;0.90;;
545;SDS011;259;53.304;9.816;2023-07-20T06:48:52;1.17;;;1.07;;
545;SDS011;259;53.304;9.816;2023-07-20T06:51:18;1.73;;;0.77;;
545;SDS011;259;53.304;9.816;2023-07-20T06:53:45;5.83;;;1.30;;
545;SDS011;259;53.304;9.816;2023-07-20T06:56:11;3.03;;;1.67;;
545;SDS011;259;53.304;9.816;2023-07-20T06:58:36;8.53;;;2.07;;
545;SDS011;259;53.304;9.816;2023-07-20T07:01:05;10.83;;;2.80;;
545;SDS011;259;53.304;9.816;2023-07-20T07:03:32;5.60;;;1.57;;
545;SDS011;259;53.304;9.816;2023-07-20T07:05:58;7.17;;;1.97;;
545;SDS011;259;53.304;9.816;2023-07-20T07:08:25;4.73;;;1.73;;
545;SDS011;259;53.304;9.816;2023-07-20T07:10:51;9.30;;;2.47;;
545;SDS011;259;53.304;9.816;2023-07-20T07:13:17;5.43;;;1.50;;
545;SDS011;259;53.304;9.816;2023-07-20T07:15:44;5.33;;;1.70;;
545;SDS011;259;53.304;9.816;2023-07-20T07:18:10;4.23;;;1.27;;
545;SDS011;259;53.304;9.816;2023-07-20T07:20:36;3.30;;;1.80;;
545;SDS011;259;53.304;9.816;2023-07-20T07:23:01;4.73;;;1.83;;
545;SDS011;259;53.304;9.816;2023-07-20T07:25:27;5.00;;;1.60;;
545;SDS011;259;53.304;9.816;2023-07-20T07:27:53;3.20;;;1.27;;
545;SDS011;259;53.304;9.816;2023-07-20T07:30:21;3.83;;;1.80;;
545;SDS011;259;53.304;9.816;2023-07-20T07:32:46;6.13;;;1.43;;
545;SDS011;259;53.304;9.816;2023-07-20T07:35:12;2.10;;;1.20;;
545;SDS011;259;53.304;9.816;2023-07-20T07:37:38;3.37;;;1.33;;
545;SDS011;259;53.304;9.816;2023-07-20T07:40:04;3.23;;;1.20;;
545;SDS011;259;53.304;9.816;2023-07-20T07:42:33;4.10;;;1.60;;
545;SDS011;259;53.304;9.816;2023-07-20T07:44:59;1.40;;;1.10;;
545;SDS011;259;53.304;9.816;2023-07-20T07:47:24;2.67;;;1.40;;
545;SDS011;259;53.304;9.816;2023-07-20T07:49:50;2.23;;;1.80;;
545;SDS011;259;53.304;9.816;2023-07-20T07:52:16;3.90;;;1.40;;
545;SDS011;259;53.304;9.816;2023-07-20T07:54:41;1.70;;;1.30;;
545;SDS011;259;53.304;9.816;2023-07-20T07:57:08;3.10;;;1.20;;
545;SDS011;259;53.304;9.816;2023-07-20T07:59:34;3.73;;;1.20;;
545;SDS011;259;53.304;9.816;2023-07-20T08:02:04;3.83;;;1.30;;
545;SDS011;259;53.304;9.816;2023-07-20T08:04:30;5.70;;;1.20;;
545;SDS011;259;53.304;9.816;2023-07-20T08:06:56;1.10;;;1.00;;
545;SDS011;259;53.304;9.816;2023-07-20T08:09:24;2.47;;;1.20;;
545;SDS011;259;53.304;9.816;2023-07-20T08:11:49;3.47;;;1.40;;
545;SDS011;259;53.304;9.816;2023-07-20T08:14:15;2.00;;;0.90;;
545;SDS011;259;53.304;9.816;2023-07-20T08:16:41;2.70;;;1.40;;
545;SDS011;259;53.304;9.816;2023-07-20T08:19:08;1.83;;;1.10;;
545;SDS011;259;53.304;9.816;2023-07-20T08:21:33;2.87;;;1.33;;
545;SDS011;259;53.304;9.816;2023-07-20T08:23:59;4.37;;;1.63;;
545;SDS011;259;53.304;9.816;2023-07-20T08:26:25;1.80;;;1.40;;
545;SDS011;259;53.304;9.816;2023-07-20T08:28:51;3.43;;;1.13;;
545;SDS011;259;53.304;9.816;2023-07-20T08:31:16;2.33;;;1.20;;
545;SDS011;259;53.304;9.816;2023-07-20T08:33:43;2.10;;;1.10;;
545;SDS011;259;53.304;9.816;2023-07-20T08:36:08;1.50;;;1.40;;
545;SDS011;259;53.304;9.816;2023-07-20T08:38:34;2.30;;;1.50;;
545;SDS011;259;53.304;9.816;2023-07-20T08:41:00;1.87;;;0.73;;
545;SDS011;259;53.304;9.816;2023-07-20T08:43:27;2.27;;;1.03;;
545;SDS011;259;53.304;9.816;2023-07-20T08:45:56;2.13;;;1.20;;
545;SDS011;259;53.304;9.816;2023-07-20T08:48:22;2.80;;;1.33;;
545;SDS011;259;53.304;9.816;2023-07-20T08:50:51;2.27;;;1.50;;
545;SDS011;259;53.304;9.816;2023-07-20T08:53:21;2.63;;;1.20;;
545;SDS011;259;53.304;9.816;2023-07-20T08:55:48;6.00;;;1.30;;
545;SDS011;259;53.304;9.816;2023-07-20T08:58:16;5.17;;;1.50;;
545;SDS011;259;53.304;9.816;2023-07-20T09:00:43;1.20;;;0.90;;
545;SDS011;259;53.304;9.816;2023-07-20T09:03:10;1.83;;;0.93;;
545;SDS011;259;53.304;9.816;2023-07-20T09:05:36;1.37;;;1.20;;
545;SDS011;259;53.304;9.816;2023-07-20T09:08:03;1.20;;;0.90;;
545;SDS011;259;53.304;9.816;2023-07-20T09:10:30;1.97;;;0.97;;
545;SDS011;259;53.304;9.816;2023-07-20T09:12:56;2.70;;;1.10;;
545;SDS011;259;53.304;9.816;2023-07-20T09:15:21;3.13;;;1.40;;
545;SDS011;259;53.304;9.816;2023-07-20T09:17:48;1.93;;;1.20;;
545;SDS011;259;53.304;9.816;2023-07-20T09:20:16;1.83;;;1.20;;
545;SDS011;259;53.304;9.816;2023-07-20T09:22:43;2.90;;;1.20;;
545;SDS011;259;53.304;9.816;2023-07-20T09:25:16;2.43;;;1.30;;
545;SDS011;259;53.304;9.816;2023-07-20T09:27:47;1.90;;;1.20;;
545;SDS011;259;53.304;9.816;2023-07-20T09:30:15;1.97;;;1.20;;
545;SDS011;259;53.304;9.816;2023-07-20T09:32:42;0.90;;;0.90;;
545;SDS011;259;53.304;9.816;2023-07-20T09:35:13;1.03;;;0.93;;
545;SDS011;259;53.304;9.816;2023-07-20T09:37:48;1.33;;;1.00;;
545;SDS011;259;53.304;9.816;2023-07-20T09:40:17;1.40;;;1.30;;
545;SDS011;259;53.304;9.816;2023-07-20T09:42:44;1.07;;;0.97;;
545;SDS011;259;53.304;9.816;2023-07-20T09:45:11;1.57;;;1.40;;
545;SDS011;259;53.304;9.816;2023-07-20T09:47:37;1.10;;;1.00;;
545;SDS011;259;53.304;9.816;2023-07-20T09:50:04;4.50;;;1.63;;
545;SDS011;259;53.304;9.816;2023-07-20T09:52:36;1.13;;;1.00;;
545;SDS011;259;53.304;9.816;2023-07-20T09:55:05;1.20;;;1.10;;
545;SDS011;259;53.304;9.816;2023-07-20T09:57:32;1.33;;;1.20;;
545;SDS011;259;53.304;9.816;2023-07-20T09:59:59;1.50;;;1.40;;
545;SDS011;259;53.304;9.816;2023-07-20T10:02:27;2.40;;;1.63;;
545;SDS011;259;53.304;9.816;2023-07-20T10:04:58;1.00;;;0.90;;
545;SDS011;259;53.304;9.816;2023-07-20T10:07:29;1.33;;;1.17;;
545;SDS011;259;53.304;9.816;2023-07-20T10:09:56;1.10;;;1.00;;
545;SDS011;259;53.304;9.816;2023-07-20T10:12:26;1.50;;;1.40;;
545;SDS011;259;53.304;9.816;2023-07-20T10:14:57;1.50;;;1.20;;
545;SDS011;259;53.304;9.816;2023-07-20T10:17:30;2.60;;;1.20;;
545;SDS011;259;53.304;9.816;2023-07-20T10:19:57;2.43;;;0.97;;
545;SDS011;259;53.304;9.816;2023-07-20T10:22:27;2.07;;;1.30;;
545;SDS011;259;53.304;9.816;2023-07-20T10:25:00;2.70;;;1.30;;
545;SDS011;259;53.304;9.816;2023-07-20T10:27:27;3.20;;;1.20;;
545;SDS011;259;53.304;9.816;2023-07-20T10:29:53;1.50;;;1.40;;
545;SDS011;259;53.304;9.816;2023-07-20T10:32:20;1.20;;;1.10;;
545;SDS011;259;53.304;9.816;2023-07-20T10:34:50;2.13;;;1.50;;
545;SDS011;259;53.304;9.816;2023-07-20T10:37:45;2.50;;;1.43;;
545;SDS011;259;53.304;9.816;2023-07-20T10:40:59;1.20;;;1.10;;
545;SDS011;259;53.304;9.816;2023-07-20T10:43:06;1.60;;;1.03;;
545;SDS011;259;53.304;9.816;2023-07-20T10:48:16;1.83;;;1.27;;
545;SDS011;259;53.304;9.816;2023-07-20T10:51:29;1.33;;;1.23;;
545;SDS011;259;53.304;9.816;2023-07-20T10:53:40;1.07;;;1.00;;
545;SDS011;259;53.304;9.816;2023-07-20T10:56:07;1.37;;;1.10;;
545;SDS011;259;53.304;9.816;2023-07-20T10:58:36;1.30;;;1.20;;
545;SDS011;259;53.304;9.816;2023-07-20T11:01:05;3.00;;;1.00;;
545;SDS011;259;53.304;9.816;2023-07-20T11:03:37;1.30;;;1.20;;
545;SDS011;259;53.304;9.816;2023-07-20T11:08:49;2.70;;;1.03;;
545;SDS011;259;53.304;9.816;2023-07-20T11:11:27;2.23;;;1.20;;
545;SDS011;259;53.304;9.816;2023-07-20T11:13:58;1.53;;;1.10;;
545;SDS011;259;53.304;9.816;2023-07-20T11:16:32;1.40;;;0.90;;
545;SDS011;259;53.304;9.816;2023-07-20T11:19:19;1.40;;;1.30;;
545;SDS011;259;53.304;9.816;2023-07-20T11:24:22;1.03;;;0.93;;
545;SDS011;259;53.304;9.816;2023-07-20T11:26:51;1.37;;;1.27;;
545;SDS011;259;53.304;9.816;2023-07-20T11:29:22;0.93;;;0.87;;
545;SDS011;259;53.304;9.816;2023-07-20T11:31:50;1.87;;;1.00;;
545;SDS011;259;53.304;9.816;2023-07-20T11:34:19;1.30;;;1.20;;
545;SDS011;259;53.304;9.816;2023-07-20T11:36:49;1.57;;;1.13;;
545;SDS011;259;53.304;9.816;2023-07-20T11:39:17;1.67;;;1.30;;
545;SDS011;259;53.304;9.816;2023-07-20T11:42:02;1.20;;;1.10;;
545;SDS011;259;53.304;9.816;2023-07-20T11:44:28;1.37;;;1.20;;
545;SDS011;259;53.304;9.816;2023-07-20T11:47:04;1.40;;;1.30;;
545;SDS011;259;53.304;9.816;2023-07-20T11:49:39;0.77;;;0.77;;
545;SDS011;259;53.304;9.816;2023-07-20T11:52:08;1.80;;;1.10;;
545;SDS011;259;53.304;9.816;2023-07-20T11:54:35;2.50;;;1.20;;
545;SDS011;259;53.304;9.816;2023-07-20T11:57:03;1.67;;;1.27;;
545;SDS011;259;53.304;9.816;2023-07-20T11:59:32;1.20;;;0.90;;
545;SDS011;259;53.304;9.816;2023-07-20T12:02:01;1.43;;;1.33;;
545;SDS011;259;53.304;9.816;2023-07-20T12:04:31;1.50;;;1.27;;
545;SDS011;259;53.304;9.816;2023-07-20T12:06:57;2.60;;;2.03;;
545;SDS011;259;53.304;9.816;2023-07-20T12:09:24;0.97;;;0.80;;
545;SDS011;259;53.304;9.816;2023-07-20T12:11:50;1.00;;;0.93;;
545;SDS011;259;53.304;9.816;2023-07-20T12:14:16;0.90;;;0.90;;
545;SDS011;259;53.304;9.816;2023-07-20T12:16:42;1.30;;;1.20;;
545;SDS011;259;53.304;9.816;2023-07-20T12:19:09;1.17;;;0.97;;
545;SDS011;259;53.304;9.816;2023-07-20T12:21:39;1.63;;;1.53;;
545;SDS011;259;53.304;9.816;2023-07-20T12:24:07;1.20;;;1.00;;
545;SDS011;259;53.304;9.816;2023-07-20T12:26:34;1.10;;;0.87;;
545;SDS011;259;53.304;9.816;2023-07-20T12:29:00;1.10;;;1.00;;
545;SDS011;259;53.304;9.816;2023-07-20T12:31:29;1.10;;;1.00;;
545;SDS011;259;53.304;9.816;2023-07-20T12:33:56;2.13;;;1.10;;
545;SDS011;259;53.304;9.816;2023-07-20T12:36:23;0.80;;;0.80;;
545;SDS011;259;53.304;9.816;2023-07-20T12:38:49;1.40;;;0.90;;
545;SDS011;259;53.304;9.816;2023-07-20T12:41:15;1.43;;;0.97;;
545;SDS011;259;53.304;9.816;2023-07-20T12:43:41;1.13;;;1.03;;
545;SDS011;259;53.304;9.816;2023-07-20T12:46:08;1.10;;;1.00;;
545;SDS011;259;53.304;9.816;2023-07-20T12:48:36;0.93;;;0.77;;
545;SDS011;259;53.304;9.816;2023-07-20T12:51:02;1.77;;;1.00;;
545;SDS011;259;53.304;9.816;2023-07-20T12:53:29;1.10;;;0.70;;
545;SDS011;259;53.304;9.816;2023-07-20T12:55:56;2.60;;;1.00;;
545;SDS011;259;53.304;9.816;2023-07-20T12:58:22;1.67;;;0.90;;
545;SDS011;259;53.304;9.816;2023-07-20T13:00:48;1.27;;;0.90;;
545;SDS011;259;53.304;9.816;2023-07-20T13:03:14;1.63;;;1.53;;
545;SDS011;259;53.304;9.816;2023-07-20T13:05:41;0.93;;;0.83;;
545;SDS011;259;53.304;9.816;2023-07-20T13:08:07;1.40;;;0.90;;
545;SDS011;259;53.304;9.816;2023-07-20T13:10:32;1.10;;;1.00;;
545;SDS011;259;53.304;9.816;2023-07-20T13:12:59;1.07;;;0.90;;
545;SDS011;259;53.304;9.816;2023-07-20T13:15:29;1.03;;;0.97;;
545;SDS011;259;53.304;9.816;2023-07-20T13:17:57;1.33;;;1.00;;
545;SDS011;259;53.304;9.816;2023-07-20T13:20:23;1.03;;;0.93;;
545;SDS011;259;53.304;9.816;2023-07-20T13:22:50;1.10;;;1.00;;
545;SDS011;259;53.304;9.816;2023-07-20T13:25:16;1.00;;;0.97;;
545;SDS011;259;53.304;9.816;2023-07-20T13:27:41;1.43;;;0.80;;
545;SDS011;259;53.304;9.816;2023-07-20T13:30:07;2.20;;;1.17;;
545;SDS011;259;53.304;9.816;2023-07-20T13:32:36;1.23;;;1.00;;
545;SDS011;259;53.304;9.816;2023-07-20T13:35:02;1.03;;;0.90;;
545;SDS011;259;53.304;9.816;2023-07-20T13:37:28;1.73;;;0.90;;
545;SDS011;259;53.304;9.816;2023-07-20T13:39:54;1.43;;;0.90;;
545;SDS011;259;53.304;9.816;2023-07-20T13:42:20;0.97;;;0.80;;
545;SDS011;259;53.304;9.816;2023-07-20T13:44:47;0.80;;;0.80;;
545;SDS011;259;53.304;9.816;2023-07-20T13:47:13;1.00;;;0.80;;
545;SDS011;259;53.304;9.816;2023-07-20T13:49:39;1.07;;;0.80;;
545;SDS011;259;53.304;9.816;2023-07-20T13:52:05;0.90;;;0.80;;
545;SDS011;259;53.304;9.816;2023-07-20T13:54:31;1.60;;;0.90;;
545;SDS011;259;53.304;9.816;2023-07-20T13:56:57;0.80;;;0.80;;
545;SDS011;259;53.304;9.816;2023-07-20T13:59:23;1.40;;;1.13;;
545;SDS011;259;53.304;9.816;2023-07-20T14:01:48;1.10;;;0.93;;
545;SDS011;259;53.304;9.816;2023-07-20T14:04:14;1.67;;;1.00;;
545;SDS011;259;53.304;9.816;2023-07-20T14:06:40;0.97;;;0.90;;
545;SDS011;259;53.304;9.816;2023-07-20T14:09:07;1.67;;;0.87;;
545;SDS011;259;53.304;9.816;2023-07-20T14:11:33;1.83;;;0.90;;
545;SDS011;259;53.304;9.816;2023-07-20T14:13:59;0.83;;;0.83;;
545;SDS011;259;53.304;9.816;2023-07-20T14:16:24;1.33;;;0.80;;
545;SDS011;259;53.304;9.816;2023-07-20T14:18:50;1.20;;;0.80;;
545;SDS011;259;53.304;9.816;2023-07-20T14:21:17;1.20;;;0.90;;
545;SDS011;259;53.304;9.816;2023-07-20T14:23:45;2.10;;;1.00;;
545;SDS011;259;53.304;9.816;2023-07-20T14:26:12;0.80;;;0.73;;
545;SDS011;259;53.304;9.816;2023-07-20T14:28:38;0.60;;;0.50;;
545;SDS011;259;53.304;9.816;2023-07-20T14:31:04;0.77;;;0.70;;
545;SDS011;259;53.304;9.816;2023-07-20T14:33:30;0.80;;;0.60;;
545;SDS011;259;53.304;9.816;2023-07-20T14:35:56;1.27;;;0.70;;
545;SDS011;259;53.304;9.816;2023-07-20T14:38:22;0.80;;;0.80;;
545;SDS011;259;53.304;9.816;2023-07-20T14:40:48;1.00;;;0.90;;
545;SDS011;259;53.304;9.816;2023-07-20T14:43:13;0.90;;;0.70;;
545;SDS011;259;53.304;9.816;2023-07-20T14:45:42;1.00;;;0.90;;
545;SDS011;259;53.304;9.816;2023-07-20T14:48:08;1.97;;;1.07;;
545;SDS011;259;53.304;9.816;2023-07-20T14:50:34;1.27;;;0.90;;
545;SDS011;259;53.304;9.816;2023-07-20T14:53:00;1.33;;;1.00;;
545;SDS011;259;53.304;9.816;2023-07-20T14:55:25;0.80;;;0.70;;
545;SDS011;259;53.304;9.816;2023-07-20T14:57:51;1.30;;;0.90;;
545;SDS011;259;53.304;9.816;2023-07-20T15:00:17;0.90;;;0.83;;
545;SDS011;259;53.304;9.816;2023-07-20T15:02:43;1.00;;;0.70;;
545;SDS011;259;53.304;9.816;2023-07-20T15:05:09;3.10;;;0.80;;
545;SDS011;259;53.304;9.816;2023-07-20T15:07:35;1.27;;;1.03;;
545;SDS011;259;53.304;9.816;2023-07-20T15:10:02;1.23;;;0.77;;
545;SDS011;259;53.304;9.816;2023-07-20T15:12:32;1.30;;;0.80;;
545;SDS011;259;53.304;9.816;2023-07-20T15:15:02;1.47;;;0.73;;
545;SDS011;259;53.304;9.816;2023-07-20T15:17:31;1.23;;;0.70;;
545;SDS011;259;53.304;9.816;2023-07-20T15:19:57;2.33;;;0.80;;
545;SDS011;259;53.304;9.816;2023-07-20T15:22:24;1.43;;;0.77;;
545;SDS011;259;53.304;9.816;2023-07-20T15:24:50;0.93;;;0.67;;
545;SDS011;259;53.304;9.816;2023-07-20T15:27:15;1.10;;;0.70;;
545;SDS011;259;53.304;9.816;2023-07-20T15:29:41;0.93;;;0.87;;
545;SDS011;259;53.304;9.816;2023-07-20T15:32:07;1.47;;;1.00;;
545;SDS011;259;53.304;9.816;2023-07-20T15:34:33;1.10;;;0.90;;
545;SDS011;259;53.304;9.816;2023-07-20T15:36:59;0.97;;;0.70;;
545;SDS011;259;53.304;9.816;2023-07-20T15:39:25;1.53;;;0.73;;
545;SDS011;259;53.304;9.816;2023-07-20T15:41:52;2.27;;;0.80;;
545;SDS011;259;53.304;9.816;2023-07-20T15:44:17;1.53;;;0.70;;
545;SDS011;259;53.304;9.816;2023-07-20T15:46:44;1.53;;;0.90;;
545;SDS011;259;53.304;9.816;2023-07-20T15:49:12;0.60;;;0.53;;
545;SDS011;259;53.304;9.816;2023-07-20T15:51:37;1.63;;;0.63;;
545;SDS011;259;53.304;9.816;2023-07-20T15:54:07;0.77;;;0.77;;
545;SDS011;259;53.304;9.816;2023-07-20T15:56:35;1.23;;;0.73;;
545;SDS011;259;53.304;9.816;2023-07-20T15:59:05;0.80;;;0.70;;